CheckWX is a tool to help pilots better visualize weather data.  It is not intended as a substitute for an official pre-flight weather briefing.

10:34:12 UTC

DAOB TAF
Bou Chekif Airport
Tiaret, Algeria
TAF DAOB 260500Z 2606/2706 14012KT CAVOK

Jun-26@
06:00 UTC

Jun-26 @ 06:00 UTC

Jun-27@
06:00 UTC

Jun-27 @ 06:00 UTC

TAF DAOB 260500Z 2606/2706 14012KT CAVOK
Wind
  • 140° at 12 KTS
Conditions
No significant weather
Cloud Levels
  • No significant clouds